createdAt,value
2018-09-03T00:00:51.833Z,3.10
2018-09-03T00:05:54.370Z,3.33
2018-09-03T00:11:03.484Z,3.67
2018-09-03T00:16:05.919Z,3.77
2018-09-03T00:21:08.139Z,3.50
2018-09-03T00:26:10.318Z,3.27
2018-09-03T00:31:18.506Z,3.30
2018-09-03T00:36:27.280Z,3.43
2018-09-03T00:41:36.059Z,3.47
2018-09-03T00:46:44.263Z,3.87
2018-09-03T00:51:47.827Z,3.27
2018-09-03T00:56:50.114Z,3.43
2018-09-03T01:01:52.261Z,3.57
2018-09-03T01:06:54.413Z,3.37
2018-09-03T01:11:56.572Z,3.53
2018-09-03T01:16:58.729Z,3.17
2018-09-03T01:22:00.853Z,3.80
2018-09-03T01:27:03.017Z,3.87
2018-09-03T01:32:05.181Z,3.70
2018-09-03T01:37:07.453Z,3.80
2018-09-03T01:42:09.682Z,3.60
2018-09-03T01:47:11.860Z,3.43
2018-09-03T01:52:13.998Z,3.60
2018-09-03T01:57:17.314Z,3.60
2018-09-03T02:02:19.462Z,3.30
2018-09-03T02:07:21.622Z,3.57
2018-09-03T02:12:23.780Z,3.63
2018-09-03T02:17:25.966Z,3.47
2018-09-03T02:22:30.426Z,3.60
2018-09-03T02:27:34.469Z,3.60
2018-09-03T02:32:36.829Z,3.93
2018-09-03T02:37:39.007Z,3.97
2018-09-03T02:42:42.103Z,4.30
2018-09-03T02:47:44.254Z,4.10
2018-09-03T02:52:47.387Z,4.10
2018-09-03T02:57:49.921Z,3.80
2018-09-03T03:02:52.633Z,4.37
2018-09-03T03:07:55.217Z,4.23
2018-09-03T03:12:57.585Z,4.20
2018-09-03T03:18:00.149Z,4.30
2018-09-03T03:23:02.432Z,4.50
2018-09-03T03:28:05.701Z,4.20
2018-09-03T03:33:08.015Z,4.30
2018-09-03T03:38:10.161Z,5.10
2018-09-03T03:43:12.661Z,4.83
2018-09-03T03:48:14.809Z,4.83
2018-09-03T03:53:16.985Z,4.43
2018-09-03T03:58:19.367Z,4.03
2018-09-03T04:03:21.586Z,5.03
2018-09-03T04:08:23.757Z,4.80
2018-09-03T04:13:28.721Z,4.70
2018-09-03T04:18:30.893Z,4.97
2018-09-03T04:23:33.040Z,5.10
2018-09-03T04:28:35.240Z,5.27
2018-09-03T04:33:38.073Z,5.37
2018-09-03T04:38:40.288Z,4.90
2018-09-03T04:43:42.601Z,5.73
2018-09-03T04:48:46.268Z,5.27
2018-09-03T04:53:49.519Z,5.60
2018-09-03T04:58:52.105Z,5.67
2018-09-03T05:03:54.262Z,5.30
2018-09-03T05:08:56.438Z,6.20
2018-09-03T05:14:00.470Z,5.93
2018-09-03T05:19:02.970Z,5.07
2018-09-03T05:24:05.365Z,5.80
2018-09-03T05:29:07.653Z,5.80
2018-09-03T05:34:09.802Z,5.27
2018-09-03T05:39:12.781Z,5.30
2018-09-03T05:44:15.319Z,5.60
2018-09-03T05:49:17.502Z,5.87
2018-09-03T05:54:19.808Z,5.33
2018-09-03T05:59:21.958Z,5.80
2018-09-03T06:04:24.594Z,5.70
2018-09-03T06:09:26.778Z,4.93
2018-09-03T06:14:28.937Z,5.40
2018-09-03T06:19:32.745Z,5.27
2018-09-03T06:24:36.915Z,5.70
2018-09-03T06:29:39.265Z,5.77
2018-09-03T06:34:43.078Z,6.20
2018-09-03T06:39:48.089Z,5.90
2018-09-03T06:44:52.854Z,5.90
2018-09-03T06:49:56.552Z,5.50
2018-09-03T06:55:00.991Z,5.67
2018-09-03T07:00:04.005Z,6.13
2018-09-03T07:05:08.541Z,5.90
2018-09-03T07:10:11.247Z,5.77
2018-09-03T07:15:13.401Z,6.30
2018-09-03T07:20:15.786Z,5.50
2018-09-03T07:25:17.970Z,6.87
2018-09-03T07:30:20.506Z,6.30
2018-09-03T07:35:26.075Z,6.97
2018-09-03T07:40:29.454Z,7.13
2018-09-03T07:45:34.265Z,8.20
2018-09-03T07:50:36.434Z,7.13
2018-09-03T07:55:38.586Z,6.67
2018-09-03T08:00:40.751Z,7.23
2018-09-03T08:05:44.094Z,7.07
2018-09-03T08:10:46.620Z,6.83
2018-09-03T08:15:48.781Z,6.37
2018-09-03T08:20:50.966Z,6.70
2018-09-03T08:25:53.119Z,7.27
2018-09-03T08:30:55.265Z,7.10
2018-09-03T08:35:57.770Z,7.00
2018-09-03T08:40:59.937Z,7.60
2018-09-03T08:46:02.287Z,7.10
2018-09-03T08:51:04.457Z,8.00
2018-09-03T08:56:06.922Z,7.50
2018-09-03T09:01:09.065Z,7.50
2018-09-03T09:06:15.442Z,7.93
2018-09-03T09:11:19.346Z,7.70
2018-09-03T09:16:21.583Z,8.90
2018-09-03T09:21:23.986Z,10.70
2018-09-03T09:26:29.072Z,8.70
2018-09-03T09:31:34.148Z,8.20
2018-09-03T09:36:39.559Z,9.17
2018-09-03T09:41:43.434Z,9.80
2018-09-03T09:46:45.642Z,9.63
2018-09-03T09:51:49.458Z,8.63
2018-09-03T09:56:53.050Z,8.83
2018-09-03T10:01:56.234Z,8.50
2018-09-03T10:06:59.933Z,8.93
2018-09-03T10:12:05.199Z,8.50
2018-09-03T10:17:08.449Z,8.67
2018-09-03T10:22:10.961Z,9.03
2018-09-03T10:27:13.363Z,8.30
2018-09-03T10:32:15.589Z,7.97
2018-09-03T10:37:19.627Z,8.27
2018-09-03T10:42:25.220Z,8.13
2018-09-03T10:47:27.743Z,8.20
2018-09-03T10:52:29.862Z,9.00
2018-09-03T10:57:33.894Z,8.87
2018-09-03T11:02:36.310Z,8.60
2018-09-03T11:07:40.969Z,9.90
2018-09-03T11:12:50.133Z,9.00
2018-09-03T11:17:52.319Z,8.37
2018-09-03T11:22:54.845Z,8.57
2018-09-03T11:27:57.072Z,8.83
2018-09-03T11:33:01.414Z,9.50
2018-09-03T11:38:04.141Z,8.83
2018-09-03T11:43:06.285Z,8.97
2018-09-03T11:48:08.445Z,10.37
2018-09-03T11:53:13.489Z,8.80
2018-09-03T11:58:17.518Z,9.93
2018-09-03T12:03:19.731Z,9.43
2018-09-03T12:08:21.889Z,9.00
2018-09-03T12:13:26.674Z,9.50
2018-09-03T12:18:29.073Z,9.30
2018-09-03T12:23:32.009Z,9.30
2018-09-03T12:28:34.414Z,9.13
2018-09-03T12:33:36.882Z,10.23
2018-09-03T12:38:39.101Z,8.97
2018-09-03T12:43:42.650Z,9.73
2018-09-03T12:48:44.850Z,9.20
2018-09-03T12:53:47.134Z,9.00
2018-09-03T12:58:49.504Z,9.07
2018-09-03T13:03:52.146Z,10.60
2018-09-03T13:08:56.191Z,10.40
2018-09-03T13:13:58.835Z,8.90
2018-09-03T13:19:02.061Z,8.63
2018-09-03T13:24:04.496Z,9.20
2018-09-03T13:29:06.658Z,9.57
2018-09-03T13:34:09.182Z,10.10
2018-09-03T13:39:11.399Z,9.70
2018-09-03T13:44:13.590Z,10.60
2018-09-03T13:49:16.624Z,10.50
2018-09-03T13:54:18.861Z,10.00
2018-09-03T13:59:20.990Z,9.07
2018-09-03T14:04:23.150Z,9.67
2018-09-03T14:09:25.358Z,10.13
2018-09-03T14:14:27.506Z,9.50
2018-09-03T14:19:30.600Z,8.93
2018-09-03T14:24:32.713Z,9.20
2018-09-03T14:29:35.394Z,9.93
2018-09-03T14:34:38.310Z,10.30
2018-09-03T14:39:40.621Z,9.93
2018-09-03T14:44:42.810Z,11.10
2018-09-03T14:49:46.845Z,9.63
2018-09-03T14:54:49.803Z,9.47
2018-09-03T14:59:52.530Z,9.87
2018-09-03T15:04:55.122Z,10.10
2018-09-03T15:09:57.305Z,9.47
2018-09-03T15:14:59.587Z,8.83
2018-09-03T15:20:01.618Z,9.20
2018-09-03T15:25:04.641Z,9.23
2018-09-03T15:30:07.326Z,9.27
2018-09-03T15:35:09.474Z,9.13
2018-09-03T15:40:11.997Z,9.23
2018-09-03T15:45:14.197Z,8.80
2018-09-03T15:50:17.447Z,8.73
2018-09-03T15:55:19.593Z,9.10
2018-09-03T16:00:21.777Z,8.87
2018-09-03T16:05:23.921Z,8.17
2018-09-03T16:10:27.194Z,8.03
2018-09-03T16:15:30.007Z,8.63
2018-09-03T16:20:32.534Z,8.00
2018-09-03T16:25:34.841Z,8.30
2018-09-03T16:30:36.992Z,7.50
2018-09-03T16:35:40.266Z,7.40
2018-09-03T16:40:42.937Z,7.40
2018-09-03T16:45:54.614Z,7.30
2018-09-03T16:50:56.790Z,6.97
2018-09-03T16:55:59.035Z,6.83
2018-09-03T17:01:01.563Z,7.17
2018-09-03T17:06:03.961Z,6.63
2018-09-03T17:11:06.237Z,6.80
2018-09-03T17:16:08.777Z,6.03
2018-09-03T17:21:11.800Z,5.80
2018-09-03T17:26:14.810Z,6.40
2018-09-03T17:31:17.410Z,6.43
2018-09-03T17:36:19.586Z,7.83
2018-09-03T17:41:22.211Z,7.40
2018-09-03T17:46:24.731Z,7.80
2018-09-03T17:51:26.884Z,8.20
2018-09-03T17:56:29.274Z,8.57
2018-09-03T18:01:31.517Z,8.60
2018-09-03T18:06:34.203Z,8.60
2018-09-03T18:11:37.036Z,9.27
2018-09-03T18:16:39.844Z,9.20
2018-09-03T18:21:42.070Z,9.07
2018-09-03T18:26:44.282Z,9.60
2018-09-03T18:31:46.506Z,9.93
2018-09-03T18:36:48.774Z,9.87
2018-09-03T18:41:51.116Z,10.20
2018-09-03T18:46:53.230Z,9.40
2018-09-03T18:51:55.430Z,9.70
2018-09-03T18:56:57.605Z,10.30
2018-09-03T19:01:59.962Z,9.80
2018-09-03T19:07:02.321Z,9.30
2018-09-03T19:12:04.533Z,11.27
2018-09-03T19:17:06.713Z,9.50
2018-09-03T19:22:08.953Z,10.17
2018-09-03T19:27:11.052Z,11.03
2018-09-03T19:32:13.230Z,9.63
2018-09-03T19:37:15.566Z,10.00
2018-09-03T19:42:17.892Z,10.23
2018-09-03T19:47:20.325Z,9.90
2018-09-03T19:52:22.528Z,11.00
2018-09-03T19:57:24.700Z,10.17
2018-09-03T20:02:27.054Z,10.13
2018-09-03T20:07:29.252Z,9.93
2018-09-03T20:12:31.415Z,9.60
2018-09-03T20:17:33.565Z,10.30
2018-09-03T20:22:35.732Z,10.37
2018-09-03T20:27:37.901Z,10.70
2018-09-03T20:32:40.294Z,10.80
2018-09-03T20:37:42.999Z,10.33
2018-09-03T20:42:45.207Z,11.47
2018-09-03T20:47:47.386Z,10.27
2018-09-03T20:52:49.534Z,10.40
2018-09-03T20:57:51.705Z,10.50
2018-09-03T21:02:53.905Z,10.10
2018-09-03T21:07:56.938Z,10.17
2018-09-03T21:12:59.618Z,10.60
2018-09-03T21:18:02.865Z,10.23
2018-09-03T21:23:05.116Z,11.00
2018-09-03T21:28:08.462Z,10.13
2018-09-03T21:33:12.171Z,9.90
2018-09-03T21:38:14.341Z,10.90
2018-09-03T21:43:16.788Z,10.00
2018-09-03T21:48:20.514Z,10.43
2018-09-03T21:53:23.965Z,9.90
2018-09-03T21:58:26.935Z,10.30
2018-09-03T22:03:30.387Z,9.77
2018-09-03T22:08:33.764Z,11.30
2018-09-03T22:13:36.170Z,10.97
2018-09-03T22:18:39.398Z,10.50
2018-09-03T22:23:41.703Z,9.73
2018-09-03T22:28:43.897Z,10.00
2018-09-03T22:33:46.364Z,10.87
2018-09-03T22:38:48.505Z,10.10
2018-09-03T22:43:51.970Z,10.87
2018-09-03T22:48:54.201Z,10.70
2018-09-03T22:53:56.350Z,10.90
2018-09-03T22:58:58.521Z,12.20
2018-09-03T23:04:01.563Z,11.10
2018-09-03T23:09:05.627Z,11.20
2018-09-03T23:14:08.736Z,11.57
2018-09-03T23:19:11.050Z,9.93
2018-09-03T23:24:13.543Z,11.07
2018-09-03T23:29:15.753Z,11.47
2018-09-03T23:34:19.592Z,11.00
2018-09-03T23:39:23.110Z,10.97
2018-09-03T23:44:26.508Z,11.47
2018-09-03T23:49:30.106Z,10.80
2018-09-03T23:54:33.489Z,10.77
2018-09-03T23:59:36.512Z,10.93
